createdAt,value
2023-05-07T03:49:18.299Z,1009.14
2023-05-07T03:50:18.289Z,1009.14
2023-05-07T03:51:18.277Z,1009.15
2023-05-07T03:52:18.273Z,1009.14
2023-05-07T03:53:18.261Z,1009.17
2023-05-07T03:54:18.248Z,1009.12
2023-05-07T03:55:18.239Z,1009.17
2023-05-07T03:56:19.695Z,1009.15
2023-05-07T03:57:18.413Z,1009.17
2023-05-07T03:58:18.505Z,1009.18
2023-05-07T03:59:18.192Z,1009.21
2023-05-07T04:00:18.383Z,1009.19
2023-05-07T04:01:18.184Z,1009.20
2023-05-07T04:02:18.178Z,1009.19
2023-05-07T04:03:18.292Z,1009.22
2023-05-07T04:04:18.193Z,1009.22
2023-05-07T04:05:18.129Z,1009.23
2023-05-07T04:06:18.319Z,1009.21
2023-05-07T04:07:18.109Z,1009.25
2023-05-07T04:08:18.095Z,1009.26
2023-05-07T04:09:18.087Z,1009.25
2023-05-07T04:10:18.073Z,1009.28
2023-05-07T04:11:19.415Z,1009.30
2023-05-07T04:12:18.054Z,1009.31
2023-05-07T04:13:18.119Z,1009.35
2023-05-07T04:14:18.179Z,1009.32
2023-05-07T04:15:18.022Z,1009.30
2023-05-07T04:16:18.035Z,1009.28
2023-05-07T04:17:18.000Z,1009.25
2023-05-07T04:18:17.989Z,1009.23
2023-05-07T04:19:17.977Z,1009.25
2023-05-07T04:20:17.962Z,1009.29
2023-05-07T04:21:17.955Z,1009.26
2023-05-07T04:22:17.984Z,1009.26
2023-05-07T04:23:17.958Z,1009.25
2023-05-07T04:24:17.932Z,1009.29
2023-05-07T04:25:17.913Z,1009.25
2023-05-07T04:26:17.908Z,1009.29
2023-05-07T04:27:17.893Z,1009.24
2023-05-07T04:28:17.882Z,1009.25
2023-05-07T04:29:17.869Z,1009.22
2023-05-07T04:30:17.883Z,1009.24
2023-05-07T04:31:17.918Z,1009.25
2023-05-07T04:32:17.894Z,1009.24
2023-05-07T04:33:17.850Z,1009.23
2023-05-07T04:34:17.816Z,1009.23
2023-05-07T04:35:17.801Z,1009.26
2023-05-07T04:36:17.800Z,1009.26
2023-05-07T04:37:17.779Z,1009.26
2023-05-07T04:38:17.769Z,1009.23
2023-05-07T04:39:17.763Z,1009.21
2023-05-07T04:40:17.746Z,1009.23
2023-05-07T04:41:17.779Z,1009.26
2023-05-07T04:42:17.931Z,1009.23
2023-05-07T04:43:17.716Z,1009.22
2023-05-07T04:44:17.703Z,1009.25
2023-05-07T04:45:17.691Z,1009.28
2023-05-07T04:46:17.832Z,1009.28
2023-05-07T04:47:17.675Z,1009.33
2023-05-07T04:48:17.862Z,1009.34
2023-05-07T04:49:17.651Z,1009.35
2023-05-07T04:50:17.641Z,1009.38
2023-05-07T04:51:17.631Z,1009.40
2023-05-07T04:52:17.618Z,1009.36
2023-05-07T04:53:17.615Z,1009.38
2023-05-07T04:54:17.595Z,1009.39
2023-05-07T04:55:17.601Z,1009.39
2023-05-07T04:56:17.575Z,1009.41
2023-05-07T04:57:17.567Z,1009.38
2023-05-07T04:58:19.302Z,1009.36
2023-05-07T04:59:17.546Z,1009.37
2023-05-07T05:00:17.569Z,1009.40
2023-05-07T05:01:51.632Z,1009.35
2023-05-07T05:02:51.532Z,1009.37
2023-05-07T05:03:51.521Z,1009.37
2023-05-07T05:04:51.418Z,1009.38
2023-05-07T05:05:51.408Z,1009.37
2023-05-07T05:06:51.396Z,1009.42
2023-05-07T05:07:51.395Z,1009.36
2023-05-07T05:08:51.379Z,1009.43
2023-05-07T05:09:51.363Z,1009.39
2023-05-07T05:10:51.354Z,1009.43
2023-05-07T05:11:51.343Z,1009.43
2023-05-07T05:12:51.420Z,1009.45
2023-05-07T05:13:51.324Z,1009.47
2023-05-07T05:14:51.313Z,1009.46
2023-05-07T05:15:51.306Z,1009.49
2023-05-07T05:16:51.294Z,1009.53
2023-05-07T05:17:51.443Z,1009.51
2023-05-07T05:18:51.267Z,1009.50
2023-05-07T05:19:51.265Z,1009.53
2023-05-07T05:20:51.248Z,1009.55
2023-05-07T05:21:51.233Z,1009.50
2023-05-07T05:22:51.226Z,1009.57
2023-05-07T05:23:51.225Z,1009.58
2023-05-07T05:24:51.203Z,1009.60
2023-05-07T05:25:51.195Z,1009.62
2023-05-07T05:26:51.187Z,1009.62
2023-05-07T05:27:51.381Z,1009.62
2023-05-07T05:28:51.157Z,1009.60
2023-05-07T05:29:51.152Z,1009.62
2023-05-07T05:30:51.138Z,1009.63
2023-05-07T05:31:51.210Z,1009.68
2023-05-07T05:32:51.230Z,1009.66
2023-05-07T05:33:51.138Z,1009.58
2023-05-07T05:34:51.095Z,1009.65
2023-05-07T05:35:51.093Z,1009.62
2023-05-07T05:36:51.082Z,1009.59
2023-05-07T05:37:51.071Z,1009.61
2023-05-07T05:38:51.059Z,1009.62
2023-05-07T05:39:51.048Z,1009.60
2023-05-07T05:40:51.040Z,1009.61
2023-05-07T05:41:51.025Z,1009.59
2023-05-07T05:42:51.224Z,1009.58
2023-05-07T05:43:51.003Z,1009.60
2023-05-07T05:44:50.992Z,1009.56
2023-05-07T05:45:50.978Z,1009.61
2023-05-07T05:46:51.176Z,1009.55
2023-05-07T05:47:51.044Z,1009.52
2023-05-07T05:48:52.470Z,1009.57
2023-05-07T05:49:50.939Z,1009.55
2023-05-07T05:50:50.927Z,1009.53
2023-05-07T05:51:50.915Z,1009.57
2023-05-07T05:52:50.904Z,1009.57
2023-05-07T05:53:50.901Z,1009.59
2023-05-07T05:54:50.881Z,1009.62
2023-05-07T05:55:50.872Z,1009.61
2023-05-07T05:56:50.861Z,1009.57
2023-05-07T05:57:50.852Z,1009.62
2023-05-07T05:58:50.918Z,1009.61
2023-05-07T05:59:50.838Z,1009.64
2023-05-07T06:00:50.818Z,1009.65
2023-05-07T06:01:50.889Z,1009.67
2023-05-07T06:02:50.843Z,1009.69
2023-05-07T06:03:50.794Z,1009.72
2023-05-07T06:04:50.888Z,1009.67
2023-05-07T06:05:50.768Z,1009.69
2023-05-07T06:06:50.758Z,1009.67
2023-05-07T06:07:50.746Z,1009.68
2023-05-07T06:08:50.739Z,1009.68
2023-05-07T06:09:50.745Z,1009.69
2023-05-07T06:10:50.718Z,1009.65
2023-05-07T06:11:50.705Z,1009.71
2023-05-07T06:12:50.715Z,1009.76
2023-05-07T06:13:50.683Z,1009.78
2023-05-07T06:14:50.680Z,1009.82
2023-05-07T06:15:50.662Z,1009.76
2023-05-07T06:16:50.674Z,1009.75
2023-05-07T06:17:50.675Z,1009.74
2023-05-07T06:18:50.630Z,1009.83
2023-05-07T06:19:50.628Z,1009.81
2023-05-07T06:20:50.763Z,1009.82
2023-05-07T06:21:50.601Z,1009.82
2023-05-07T06:22:50.585Z,1009.83
2023-05-07T06:23:50.579Z,1009.83
2023-05-07T06:24:50.567Z,1009.83
2023-05-07T06:25:50.554Z,1009.83
2023-05-07T06:26:50.544Z,1009.81
2023-05-07T06:27:50.740Z,1009.81
2023-05-07T06:28:50.527Z,1009.78
2023-05-07T06:29:50.520Z,1009.80
2023-05-07T06:30:50.512Z,1009.83
2023-05-07T06:31:50.532Z,1009.85
2023-05-07T06:32:50.563Z,1009.85
2023-05-07T06:33:50.470Z,1009.87
2023-05-07T06:34:50.469Z,1009.94
2023-05-07T06:35:50.455Z,1009.96
2023-05-07T06:36:50.531Z,1009.96
2023-05-07T06:37:50.639Z,1009.97
2023-05-07T06:38:50.435Z,1010.01
2023-05-07T06:39:50.418Z,1009.96
2023-05-07T06:40:50.402Z,1010.00
2023-05-07T06:41:50.391Z,1010.04
2023-05-07T06:42:50.381Z,1010.01
2023-05-07T06:43:50.375Z,1010.02
2023-05-07T06:44:50.357Z,1010.01
2023-05-07T06:45:50.383Z,1010.04
2023-05-07T06:46:50.334Z,1010.02
2023-05-07T06:47:50.379Z,1010.02
2023-05-07T06:48:50.318Z,1010.05
2023-05-07T06:49:50.306Z,1010.07
2023-05-07T06:50:50.293Z,1010.01
2023-05-07T06:51:50.288Z,1010.01
2023-05-07T06:52:50.404Z,1010.02
2023-05-07T06:53:50.263Z,1010.00
2023-05-07T06:54:50.252Z,1010.04
2023-05-07T06:55:50.244Z,1010.05
2023-05-07T06:56:50.229Z,1010.00
2023-05-07T06:57:50.217Z,1010.02
2023-05-07T06:58:50.211Z,1010.01
2023-05-07T06:59:50.195Z,1009.96
2023-05-07T07:00:50.190Z,1010.00
2023-05-07T07:01:50.272Z,1009.95
2023-05-07T07:02:50.218Z,1009.99
2023-05-07T07:03:50.157Z,1009.97
2023-05-07T07:04:50.216Z,1010.00
2023-05-07T07:05:50.133Z,1010.03
2023-05-07T07:06:50.121Z,1010.04
2023-05-07T07:07:50.112Z,1010.01
2023-05-07T07:08:50.190Z,1010.04
2023-05-07T07:09:50.090Z,1010.06
2023-05-07T07:10:50.281Z,1009.97
2023-05-07T07:11:50.068Z,1010.02
2023-05-07T07:12:50.104Z,1010.02
2023-05-07T07:13:50.048Z,1010.04
2023-05-07T07:14:50.041Z,1010.03
2023-05-07T07:15:50.051Z,1010.03
2023-05-07T07:16:50.019Z,1010.01
2023-05-07T07:17:50.040Z,1009.96
2023-05-07T07:18:49.996Z,1009.99
2023-05-07T07:19:49.987Z,1009.99
2023-05-07T07:20:49.983Z,1010.03
2023-05-07T07:21:49.955Z,1010.04
2023-05-07T07:22:49.951Z,1010.03
2023-05-07T07:23:49.940Z,1010.02
2023-05-07T07:24:50.020Z,1010.00
2023-05-07T07:25:49.917Z,1009.99
2023-05-07T07:26:49.905Z,1010.03
2023-05-07T07:27:49.896Z,1009.99
2023-05-07T07:28:49.888Z,1010.01
2023-05-07T07:29:49.894Z,1009.99
2023-05-07T07:30:49.867Z,1010.05
2023-05-07T07:31:49.997Z,1010.05
2023-05-07T07:32:49.902Z,1010.06
2023-05-07T07:33:51.639Z,1010.02
2023-05-07T07:34:49.820Z,1010.05
2023-05-07T07:35:49.808Z,1010.03
2023-05-07T07:36:49.799Z,1010.05
2023-05-07T07:37:49.792Z,1010.04
2023-05-07T07:38:49.779Z,1010.01
2023-05-07T07:39:49.770Z,1010.04
2023-05-07T07:40:49.776Z,1010.03
2023-05-07T07:41:49.746Z,1010.08
2023-05-07T07:42:49.735Z,1010.05
2023-05-07T07:43:50.023Z,1010.03
2023-05-07T07:44:49.715Z,1010.05
2023-05-07T07:45:49.707Z,1010.09
2023-05-07T07:46:49.744Z,1010.08
2023-05-07T07:47:49.703Z,1010.09
2023-05-07T07:48:49.675Z,1010.06
2023-05-07T07:49:49.662Z,1010.14
2023-05-07T07:50:49.654Z,1010.12
2023-05-07T07:51:49.645Z,1010.14
2023-05-07T07:52:49.658Z,1010.14
2023-05-07T07:53:49.622Z,1010.11
2023-05-07T07:54:49.607Z,1010.11
2023-05-07T07:55:49.600Z,1010.16
2023-05-07T07:56:49.680Z,1010.17
2023-05-07T07:57:49.582Z,1010.17
2023-05-07T07:58:49.570Z,1010.09
2023-05-07T07:59:49.761Z,1010.11
2023-05-07T08:00:49.549Z,1010.16
2023-05-07T08:01:49.583Z,1010.14
2023-05-07T08:02:49.686Z,1010.17
2023-05-07T08:03:49.609Z,1010.19
2023-05-07T08:04:49.511Z,1010.22
2023-05-07T08:05:49.495Z,1010.20
2023-05-07T08:06:49.485Z,1010.22
2023-05-07T08:07:49.472Z,1010.22
2023-05-07T08:08:49.467Z,1010.20
2023-05-07T08:09:49.454Z,1010.16
2023-05-07T08:10:49.443Z,1010.15
2023-05-07T08:11:49.438Z,1010.15
2023-05-07T08:12:49.465Z,1010.16
2023-05-07T08:13:49.416Z,1010.17
2023-05-07T08:14:49.404Z,1010.19
2023-05-07T08:15:49.397Z,1010.21
2023-05-07T08:16:49.400Z,1010.24
2023-05-07T08:17:49.494Z,1010.23
2023-05-07T08:18:49.362Z,1010.23
2023-05-07T08:19:49.352Z,1010.24
2023-05-07T08:20:49.340Z,1010.26
2023-05-07T08:21:49.348Z,1010.28
2023-05-07T08:22:49.545Z,1010.26
2023-05-07T08:23:49.309Z,1010.27
2023-05-07T08:24:49.301Z,1010.28
2023-05-07T08:25:49.309Z,1010.27
2023-05-07T08:26:49.283Z,1010.28
2023-05-07T08:27:49.273Z,1010.26
2023-05-07T08:28:49.373Z,1010.28
2023-05-07T08:29:49.249Z,1010.29
2023-05-07T08:30:49.469Z,1010.28
2023-05-07T08:31:49.232Z,1010.26
2023-05-07T08:32:49.275Z,1010.23
2023-05-07T08:33:49.206Z,1010.31
2023-05-07T08:34:49.203Z,1010.33
2023-05-07T08:35:49.186Z,1010.34
2023-05-07T08:36:49.177Z,1010.35
2023-05-07T08:37:49.191Z,1010.31
2023-05-07T08:38:49.166Z,1010.33
2023-05-07T08:39:49.145Z,1010.32
2023-05-07T08:40:49.142Z,1010.34
2023-05-07T08:41:49.126Z,1010.36
2023-05-07T08:42:49.120Z,1010.34
2023-05-07T08:43:49.103Z,1010.35
2023-05-07T08:44:49.115Z,1010.35
2023-05-07T08:45:49.147Z,1010.33
2023-05-07T08:46:49.323Z,1010.32
2023-05-07T08:47:49.141Z,1010.34
2023-05-07T08:48:49.051Z,1010.38
2023-05-07T08:49:49.044Z,1010.32
2023-05-07T08:50:49.039Z,1010.33
2023-05-07T08:51:49.015Z,1010.32
2023-05-07T08:52:49.013Z,1010.35
2023-05-07T08:53:48.994Z,1010.36
2023-05-07T08:54:48.993Z,1010.36
2023-05-07T08:55:48.992Z,1010.31
2023-05-07T08:56:48.970Z,1010.36
2023-05-07T08:57:48.954Z,1010.36
2023-05-07T08:58:48.948Z,1010.35
2023-05-07T08:59:48.924Z,1010.37
2023-05-07T09:00:49.015Z,1010.34
2023-05-07T09:01:49.146Z,1010.35
2023-05-07T09:02:48.958Z,1010.34
2023-05-07T09:03:48.958Z,1010.34
2023-05-07T09:04:48.880Z,1010.35
2023-05-07T09:05:48.869Z,1010.31
2023-05-07T09:06:48.855Z,1010.30
2023-05-07T09:07:48.845Z,1010.34
2023-05-07T09:08:48.832Z,1010.32
2023-05-07T09:09:48.821Z,1010.24
2023-05-07T09:10:48.806Z,1010.26
2023-05-07T09:11:48.799Z,1010.29
2023-05-07T09:12:48.869Z,1010.32
2023-05-07T09:13:48.778Z,1010.32
2023-05-07T09:14:48.767Z,1010.29
2023-05-07T09:15:48.767Z,1010.32
2023-05-07T09:16:48.795Z,1010.29
2023-05-07T09:17:48.741Z,1010.32
2023-05-07T09:18:48.728Z,1010.36
2023-05-07T09:19:48.714Z,1010.35
2023-05-07T09:20:48.704Z,1010.33
2023-05-07T09:21:48.710Z,1010.37
2023-05-07T09:22:48.685Z,1010.39
2023-05-07T09:23:48.671Z,1010.41
2023-05-07T09:24:48.671Z,1010.37
2023-05-07T09:25:48.658Z,1010.39
2023-05-07T09:26:48.646Z,1010.32
2023-05-07T09:27:48.632Z,1010.37
2023-05-07T09:28:48.624Z,1010.39
2023-05-07T09:29:48.611Z,1010.34
2023-05-07T09:30:48.602Z,1010.37
2023-05-07T09:31:48.641Z,1010.35
2023-05-07T09:32:48.611Z,1010.37
2023-05-07T09:33:48.599Z,1010.33
2023-05-07T09:34:48.561Z,1010.33
2023-05-07T09:35:48.558Z,1010.36
2023-05-07T09:36:48.537Z,1010.36
2023-05-07T09:37:48.528Z,1010.41
2023-05-07T09:38:48.531Z,1010.34
2023-05-07T09:39:48.518Z,1010.35
2023-05-07T09:40:48.506Z,1010.37
2023-05-07T09:41:48.489Z,1010.36
2023-05-07T09:42:48.485Z,1010.41
2023-05-07T09:43:48.478Z,1010.42
2023-05-07T09:44:48.470Z,1010.39
2023-05-07T09:45:48.491Z,1010.41
2023-05-07T09:46:48.440Z,1010.39
2023-05-07T09:47:48.460Z,1010.39
2023-05-07T09:48:48.702Z,1010.39
2023-05-07T09:49:48.407Z,1010.41
2023-05-07T09:50:48.400Z,1010.42
2023-05-07T09:51:49.892Z,1010.41
2023-05-07T09:52:48.379Z,1010.36
2023-05-07T09:53:48.367Z,1010.36
2023-05-07T09:54:48.369Z,1010.34
2023-05-07T09:55:48.363Z,1010.37
2023-05-07T09:56:48.337Z,1010.33
2023-05-07T09:57:48.329Z,1010.34
2023-05-07T09:58:48.520Z,1010.32
2023-05-07T09:59:48.341Z,1010.30
2023-05-07T10:00:48.311Z,1010.36
2023-05-07T10:01:48.286Z,1010.35
2023-05-07T10:02:48.333Z,1010.32
2023-05-07T10:03:48.486Z,1010.27
2023-05-07T10:04:48.362Z,1010.31
2023-05-07T10:05:48.247Z,1010.30
2023-05-07T10:06:48.249Z,1010.32
2023-05-07T10:07:48.225Z,1010.31
2023-05-07T10:08:48.220Z,1010.29
2023-05-07T10:09:49.028Z,1010.30
2023-05-07T10:10:48.203Z,1010.29
2023-05-07T10:11:48.190Z,1010.29
2023-05-07T10:12:48.208Z,1010.28
2023-05-07T10:13:48.167Z,1010.27
2023-05-07T10:14:48.162Z,1010.26
2023-05-07T10:15:48.149Z,1010.26
2023-05-07T10:16:48.140Z,1010.30
2023-05-07T10:17:48.335Z,1010.27
2023-05-07T10:18:48.175Z,1010.26
2023-05-07T10:19:48.111Z,1010.26
2023-05-07T10:20:48.120Z,1010.29
2023-05-07T10:21:48.096Z,1010.23
2023-05-07T10:22:48.094Z,1010.20
2023-05-07T10:23:48.074Z,1010.20
2023-05-07T10:24:48.064Z,1010.18
2023-05-07T10:25:48.055Z,1010.18
2023-05-07T10:26:48.046Z,1010.22
2023-05-07T10:27:48.035Z,1010.15
2023-05-07T10:28:49.626Z,1010.16
2023-05-07T10:29:48.015Z,1010.18
2023-05-07T10:30:48.042Z,1010.18
2023-05-07T10:31:48.002Z,1010.16
2023-05-07T10:32:48.062Z,1010.19
2023-05-07T10:33:47.976Z,1010.22
2023-05-07T10:34:47.971Z,1010.19
2023-05-07T10:35:47.957Z,1010.18
2023-05-07T10:36:48.040Z,1010.19
2023-05-07T10:37:47.947Z,1010.21
2023-05-07T10:38:47.927Z,1010.19
2023-05-07T10:39:47.916Z,1010.21
2023-05-07T10:40:48.670Z,1010.20
2023-05-07T10:41:47.900Z,1010.23
2023-05-07T10:42:47.894Z,1010.23
2023-05-07T10:43:47.970Z,1010.20
2023-05-07T10:44:47.923Z,1010.18
2023-05-07T10:45:47.947Z,1010.22
2023-05-07T10:46:47.902Z,1010.25
2023-05-07T10:47:47.944Z,1010.27
2023-05-07T10:48:47.836Z,1010.29
2023-05-07T10:49:47.942Z,1010.25
2023-05-07T10:50:48.129Z,1010.26
2023-05-07T10:51:47.802Z,1010.26
2023-05-07T10:52:47.822Z,1010.28
2023-05-07T10:53:47.855Z,1010.24
2023-05-07T10:54:47.834Z,1010.25
2023-05-07T10:55:47.891Z,1010.27
2023-05-07T10:56:47.846Z,1010.23
2023-05-07T10:57:47.950Z,1010.27
2023-05-07T10:58:47.817Z,1010.25
2023-05-07T10:59:47.856Z,1010.20
2023-05-07T11:00:47.787Z,1010.19
2023-05-07T11:01:47.814Z,1010.18
2023-05-07T11:02:47.727Z,1010.13
2023-05-07T11:03:47.689Z,1010.18
2023-05-07T11:04:47.704Z,1010.14
2023-05-07T11:05:47.723Z,1010.13
2023-05-07T11:06:47.658Z,1010.13
2023-05-07T11:07:47.646Z,1010.10
2023-05-07T11:08:47.730Z,1010.10
2023-05-07T11:09:47.626Z,1010.08
2023-05-07T11:10:47.619Z,1010.12
2023-05-07T11:11:48.440Z,1010.11
2023-05-07T11:12:47.624Z,1010.05
2023-05-07T11:13:47.600Z,1010.10
2023-05-07T11:14:47.576Z,1010.10
2023-05-07T11:15:47.612Z,1010.12
2023-05-07T11:16:47.673Z,1010.10
2023-05-07T11:17:47.617Z,1010.10
2023-05-07T11:18:47.535Z,1010.10
2023-05-07T11:19:47.522Z,1010.12
2023-05-07T11:20:47.531Z,1010.13
2023-05-07T11:21:47.502Z,1010.12
2023-05-07T11:22:47.499Z,1010.08
2023-05-07T11:23:47.484Z,1010.09
2023-05-07T11:24:47.571Z,1010.12
2023-05-07T11:25:47.472Z,1010.10
2023-05-07T11:26:47.459Z,1010.09
2023-05-07T11:27:47.451Z,1010.09
2023-05-07T11:28:47.436Z,1010.03
2023-05-07T11:29:47.421Z,1010.03
2023-05-07T11:30:47.421Z,1009.99
2023-05-07T11:31:47.489Z,1010.00
2023-05-07T11:32:47.418Z,1010.04
2023-05-07T11:33:47.387Z,1010.02
2023-05-07T11:34:47.386Z,1010.06
2023-05-07T11:35:47.367Z,1010.08
2023-05-07T11:36:47.361Z,1010.06
2023-05-07T11:37:47.352Z,1010.07
2023-05-07T11:38:47.347Z,1010.04
2023-05-07T11:39:47.330Z,1010.03
2023-05-07T11:40:47.411Z,1010.06
2023-05-07T11:41:47.312Z,1010.06
2023-05-07T11:42:47.294Z,1010.02
2023-05-07T11:43:47.290Z,1010.01
2023-05-07T11:44:47.550Z,1009.98
2023-05-07T11:45:47.288Z,1010.02
2023-05-07T11:46:47.267Z,1010.06
2023-05-07T11:47:47.292Z,1010.01
2023-05-07T11:48:47.240Z,1010.00
2023-05-07T11:49:47.239Z,1010.02
2023-05-07T11:50:47.220Z,1010.05
2023-05-07T11:51:47.210Z,1009.98
2023-05-07T11:52:47.200Z,1010.00
2023-05-07T11:53:47.190Z,1010.03
2023-05-07T11:54:47.181Z,1010.04
2023-05-07T11:55:47.168Z,1010.03
2023-05-07T11:56:47.227Z,1010.07
2023-05-07T11:57:47.150Z,1010.07
2023-05-07T11:58:47.148Z,1010.04
2023-05-07T11:59:47.129Z,1010.08
2023-05-07T12:00:47.120Z,1010.05
2023-05-07T12:01:47.129Z,1010.07
2023-05-07T12:02:47.279Z,1010.10
2023-05-07T12:03:47.599Z,1010.11
2023-05-07T12:04:47.160Z,1010.08
2023-05-07T12:05:47.078Z,1010.06
2023-05-07T12:06:47.062Z,1010.11
2023-05-07T12:07:47.050Z,1010.13
2023-05-07T12:08:48.324Z,1010.07
2023-05-07T12:09:47.033Z,1010.04
2023-05-07T12:10:47.020Z,1010.11
2023-05-07T12:11:47.013Z,1010.08
2023-05-07T12:12:47.066Z,1010.04
2023-05-07T12:13:46.993Z,1010.06
2023-05-07T12:14:47.004Z,1010.11
2023-05-07T12:15:46.972Z,1010.04
2023-05-07T12:16:47.022Z,1010.07
2023-05-07T12:17:47.038Z,1010.09
2023-05-07T12:18:46.950Z,1010.10
2023-05-07T12:19:46.928Z,1010.16
2023-05-07T12:20:46.923Z,1010.15
2023-05-07T12:21:46.915Z,1010.15
2023-05-07T12:22:46.910Z,1010.16
2023-05-07T12:23:46.892Z,1010.14
2023-05-07T12:24:46.945Z,1010.12
2023-05-07T12:25:46.872Z,1010.11
2023-05-07T12:26:46.868Z,1010.10
2023-05-07T12:27:46.857Z,1010.16
2023-05-07T12:28:47.072Z,1010.14
2023-05-07T12:29:46.833Z,1010.13
2023-05-07T12:30:46.825Z,1010.18
2023-05-07T12:31:47.044Z,1010.16
2023-05-07T12:32:46.858Z,1010.12
2023-05-07T12:33:46.798Z,1010.11
2023-05-07T12:34:46.791Z,1010.10
2023-05-07T12:35:46.783Z,1010.10
2023-05-07T12:36:46.772Z,1010.12
2023-05-07T12:37:46.757Z,1010.11
2023-05-07T12:38:46.748Z,1010.07
2023-05-07T12:39:46.739Z,1010.13
2023-05-07T12:40:46.728Z,1010.10
2023-05-07T12:41:46.720Z,1010.08
2023-05-07T12:42:46.911Z,1010.05
2023-05-07T12:43:46.706Z,1010.15
2023-05-07T12:44:46.710Z,1010.13
2023-05-07T12:45:46.674Z,1010.20
2023-05-07T12:46:46.703Z,1010.15
2023-05-07T12:47:46.831Z,1010.17
2023-05-07T12:48:46.661Z,1010.16
2023-05-07T12:49:46.638Z,1010.17
2023-05-07T12:50:46.626Z,1010.19
2023-05-07T12:51:46.619Z,1010.19
2023-05-07T12:52:46.612Z,1010.22
2023-05-07T12:53:46.596Z,1010.22
2023-05-07T12:54:46.585Z,1010.23
2023-05-07T12:55:46.582Z,1010.18
2023-05-07T12:56:46.565Z,1010.19
2023-05-07T12:57:46.557Z,1010.29
2023-05-07T12:58:46.541Z,1010.27
2023-05-07T12:59:46.536Z,1010.25
2023-05-07T13:00:46.545Z,1010.29
2023-05-07T13:01:46.564Z,1010.29
2023-05-07T13:02:46.681Z,1010.25
2023-05-07T13:03:46.554Z,1010.31
2023-05-07T13:04:46.490Z,1010.30
2023-05-07T13:05:46.475Z,1010.29
2023-05-07T13:06:46.460Z,1010.30
2023-05-07T13:07:46.447Z,1010.29
2023-05-07T13:08:46.433Z,1010.34
2023-05-07T13:09:46.428Z,1010.32
2023-05-07T13:10:46.420Z,1010.34
2023-05-07T13:11:46.408Z,1010.34
2023-05-07T13:12:46.402Z,1010.35
2023-05-07T13:13:46.390Z,1010.37
2023-05-07T13:14:46.375Z,1010.30
2023-05-07T13:15:46.533Z,1010.36
2023-05-07T13:16:46.462Z,1010.36
2023-05-07T13:17:46.423Z,1010.36
2023-05-07T13:18:46.651Z,1010.31
2023-05-07T13:19:46.323Z,1010.41
2023-05-07T13:20:46.308Z,1010.36
2023-05-07T13:21:46.302Z,1010.38
2023-05-07T13:22:46.301Z,1010.40
2023-05-07T13:23:46.283Z,1010.37
2023-05-07T13:24:46.268Z,1010.34
2023-05-07T13:25:46.262Z,1010.35
2023-05-07T13:26:46.403Z,1010.35
2023-05-07T13:27:48.093Z,1010.33
2023-05-07T13:28:46.228Z,1010.27
2023-05-07T13:29:46.222Z,1010.32
2023-05-07T13:30:46.208Z,1010.33
2023-05-07T13:31:47.799Z,1010.35
2023-05-07T13:32:46.229Z,1010.36
2023-05-07T13:33:46.171Z,1010.36
2023-05-07T13:34:46.164Z,1010.39
2023-05-07T13:35:46.170Z,1010.37
2023-05-07T13:36:47.798Z,1010.37
2023-05-07T13:37:46.143Z,1010.38
2023-05-07T13:38:46.120Z,1010.41
2023-05-07T13:39:46.111Z,1010.38
2023-05-07T13:40:46.097Z,1010.39
2023-05-07T13:41:46.089Z,1010.46
2023-05-07T13:42:46.080Z,1010.42
2023-05-07T13:43:46.069Z,1010.54
2023-05-07T13:44:46.054Z,1010.46
2023-05-07T13:45:46.071Z,1010.49
2023-05-07T13:46:46.042Z,1010.46
2023-05-07T13:47:46.041Z,1010.47
2023-05-07T13:48:46.233Z,1010.46
2023-05-07T13:49:46.003Z,1010.49
2023-05-07T13:50:45.991Z,1010.44
2023-05-07T13:51:46.027Z,1010.46
2023-05-07T13:52:47.207Z,1010.49
2023-05-07T13:53:45.961Z,1010.49
2023-05-07T13:54:45.966Z,1010.50
2023-05-07T13:55:45.947Z,1010.54
2023-05-07T13:56:45.931Z,1010.51
2023-05-07T13:57:45.920Z,1010.53
2023-05-07T13:58:58.787Z,1010.51
2023-05-07T13:59:46.925Z,1010.58
2023-05-07T14:00:45.901Z,1010.56
2023-05-07T14:01:45.894Z,1010.59
2023-05-07T14:02:45.965Z,1010.60
2023-05-07T14:03:46.094Z,1010.61
2023-05-07T14:04:45.865Z,1010.61
2023-05-07T14:05:47.187Z,1010.53
2023-05-07T14:06:45.822Z,1010.58
2023-05-07T14:07:45.821Z,1010.61
2023-05-07T14:08:45.805Z,1010.57
2023-05-07T14:09:45.793Z,1010.54
2023-05-07T14:10:45.781Z,1010.53
2023-05-07T14:11:45.774Z,1010.51
2023-05-07T14:12:45.790Z,1010.54
2023-05-07T14:13:45.806Z,1010.53
2023-05-07T14:14:45.749Z,1010.54
2023-05-07T14:15:45.727Z,1010.55
2023-05-07T14:16:46.541Z,1010.53
2023-05-07T14:17:45.775Z,1010.54
2023-05-07T14:18:45.694Z,1010.56
2023-05-07T14:19:45.691Z,1010.56
2023-05-07T14:20:45.696Z,1010.54
2023-05-07T14:21:45.674Z,1010.59
2023-05-07T14:22:45.668Z,1010.56
2023-05-07T14:23:45.654Z,1010.59
2023-05-07T14:24:48.530Z,1010.57
2023-05-07T14:25:46.650Z,1010.59
2023-05-07T14:26:45.611Z,1010.62
2023-05-07T14:27:45.604Z,1010.67
2023-05-07T14:28:45.588Z,1010.63
2023-05-07T14:29:45.590Z,1010.65
2023-05-07T14:30:45.616Z,1010.67
2023-05-07T14:31:45.556Z,1010.64
2023-05-07T14:32:45.580Z,1010.66
2023-05-07T14:33:45.543Z,1010.62
2023-05-07T14:34:45.525Z,1010.65
2023-05-07T14:35:45.515Z,1010.67
2023-05-07T14:36:45.542Z,1010.63
2023-05-07T14:37:45.494Z,1010.65
2023-05-07T14:38:45.480Z,1010.67
2023-05-07T14:40:45.460Z,1010.66
2023-05-07T14:41:45.453Z,1010.66
2023-05-07T14:42:45.438Z,1010.62
2023-05-07T14:43:45.432Z,1010.68
2023-05-07T14:44:45.419Z,1010.66
2023-05-07T14:45:45.451Z,1010.62
2023-05-07T14:46:45.446Z,1010.63
2023-05-07T14:47:45.432Z,1010.63
2023-05-07T14:48:45.383Z,1010.65
2023-05-07T14:49:45.369Z,1010.62
2023-05-07T14:50:45.356Z,1010.62
2023-05-07T14:51:45.347Z,1010.60
2023-05-07T14:52:45.357Z,1010.62
2023-05-07T14:53:45.328Z,1010.60
2023-05-07T14:54:45.325Z,1010.59
2023-05-07T14:55:45.309Z,1010.61
2023-05-07T14:56:45.295Z,1010.61
2023-05-07T14:57:45.285Z,1010.68
2023-05-07T14:58:45.277Z,1010.63
2023-05-07T14:59:45.275Z,1010.69
2023-05-07T15:00:45.456Z,1010.66
2023-05-07T15:01:45.335Z,1010.67
2023-05-07T15:02:45.267Z,1010.67
2023-05-07T15:03:45.366Z,1010.63
2023-05-07T15:04:45.215Z,1010.65
2023-05-07T15:05:45.201Z,1010.63
2023-05-07T15:06:45.193Z,1010.64
2023-05-07T15:07:45.811Z,1010.63
2023-05-07T15:08:45.198Z,1010.67
2023-05-07T15:09:45.169Z,1010.66
2023-05-07T15:10:45.148Z,1010.67
2023-05-07T15:11:45.137Z,1010.69
2023-05-07T15:12:45.172Z,1010.69
2023-05-07T15:13:45.119Z,1010.72
2023-05-07T15:14:45.105Z,1010.72
2023-05-07T15:15:45.093Z,1010.75
2023-05-07T15:16:45.121Z,1010.75
2023-05-07T15:17:45.119Z,1010.75
2023-05-07T15:18:45.072Z,1010.77
2023-05-07T15:19:45.051Z,1010.75
2023-05-07T15:20:45.045Z,1010.80
2023-05-07T15:21:45.027Z,1010.78
2023-05-07T15:22:45.015Z,1010.78
2023-05-07T15:23:45.008Z,1010.82
2023-05-07T15:24:45.038Z,1010.76
2023-05-07T15:25:44.986Z,1010.77
2023-05-07T15:26:44.978Z,1010.78
2023-05-07T15:27:44.966Z,1010.78
2023-05-07T15:28:44.950Z,1010.78
2023-05-07T15:29:44.943Z,1010.79
2023-05-07T15:30:44.935Z,1010.80
2023-05-07T15:31:44.964Z,1010.77
2023-05-07T15:32:44.982Z,1010.82
2023-05-07T15:33:45.104Z,1010.82
2023-05-07T15:34:44.888Z,1010.83
2023-05-07T15:35:44.891Z,1010.81
2023-05-07T15:36:44.867Z,1010.80
2023-05-07T15:37:44.862Z,1010.78
2023-05-07T15:38:44.846Z,1010.77
2023-05-07T15:39:44.838Z,1010.78
2023-05-07T15:40:44.845Z,1010.77
2023-05-07T15:41:44.815Z,1010.79
2023-05-07T15:42:44.824Z,1010.80
2023-05-07T15:43:45.012Z,1010.80
2023-05-07T15:44:44.786Z,1010.79
2023-05-07T15:45:44.810Z,1010.83
2023-05-07T15:46:44.770Z,1010.83
2023-05-07T15:47:44.795Z,1010.82
2023-05-07T15:48:44.780Z,1010.80
2023-05-07T15:49:44.741Z,1010.82
2023-05-07T15:50:44.717Z,1010.79
2023-05-07T15:51:44.715Z,1010.81
2023-05-07T15:52:44.701Z,1010.80
2023-05-07T15:53:44.690Z,1010.83
2023-05-07T15:54:44.679Z,1010.81
2023-05-07T15:55:44.670Z,1010.80